Gonaives, Haiti
Current Conditions -  °F | °C
As of 5:00 PM on Thursday 27 Nov 2014 (Local Time) from MDST Reporting Station
Few Clouds Few Clouds  
Wind Chill: 79°   Ceiling: Unl
Heat Index: 82°   Visibility: 6mi
Dew Point: 72°   Wind: 8mph
Humidity: 78%   Direction: 110°ESE
Pressure: 29.91"   Gusts: NA
Location:  19.45°N, 72.69°W
Report Text: MDST 272200Z 11007KT 9999 FEW020CB FEW022 26/22 Q1013 CB/S/SW
Loading
Personal Weather Stations






























Interactive Weather Map New forecast layout! Learn more

10-Day Weather Forecast

Advertisements
Track Severe Weather on mobile